createdAt,value
2024-01-27T00:00:52.299Z,99150.75
2024-01-27T00:03:19.381Z,99164.34
2024-01-27T00:05:47.819Z,99167.31
2024-01-27T00:08:14.955Z,99159.22
2024-01-27T00:10:42.075Z,99151.22
2024-01-27T00:13:09.036Z,99151.53
2024-01-27T00:15:36.141Z,99134.84
2024-01-27T00:18:03.588Z,99134.91
2024-01-27T00:20:30.627Z,99136.13
2024-01-27T00:22:59.030Z,99137.72
2024-01-27T00:25:25.996Z,99139.31
2024-01-27T00:27:53.119Z,99139.31
2024-01-27T00:30:20.183Z,99141.06
2024-01-27T00:32:47.369Z,99132.78
2024-01-27T00:35:15.982Z,99135.75
2024-01-27T00:37:43.025Z,99139.22
2024-01-27T00:40:12.640Z,99132.69
2024-01-27T00:42:39.808Z,99136.97
2024-01-27T00:45:07.824Z,99132.84
2024-01-27T00:47:35.705Z,99138.56
2024-01-27T00:50:02.847Z,99143.66
2024-01-27T00:52:29.824Z,99143.66
2024-01-27T00:54:56.755Z,99137.41
2024-01-27T00:57:25.164Z,99135.66
2024-01-27T00:59:52.159Z,99132.97
2024-01-27T01:02:19.125Z,99126.81
2024-01-27T01:04:46.275Z,99121.13
2024-01-27T01:07:13.252Z,99117.41
2024-01-27T01:09:40.279Z,99111.44
2024-01-27T01:12:07.908Z,99101.88
2024-01-27T01:14:36.468Z,99096.81
2024-01-27T01:17:04.183Z,99103.09
2024-01-27T01:19:31.396Z,99099.25
2024-01-27T01:21:58.413Z,99096.84
2024-01-27T01:24:25.525Z,99094.19
2024-01-27T01:26:52.661Z,99086.72
2024-01-27T01:29:19.658Z,99094.56
2024-01-27T01:31:48.013Z,99084.06
2024-01-27T01:34:15.400Z,99069.91
2024-01-27T01:36:42.551Z,99070.22
2024-01-27T01:39:11.795Z,99063.03
2024-01-27T01:41:38.862Z,99060.38
2024-01-27T01:44:06.097Z,99058.19
2024-01-27T01:46:33.425Z,99062.44
2024-01-27T01:49:02.208Z,99058.06
2024-01-27T01:51:29.586Z,99058.59
2024-01-27T01:54:00.248Z,99049.44
2024-01-27T01:56:28.072Z,99054.13
2024-01-27T01:58:55.568Z,99041.75
2024-01-27T02:01:22.738Z,99051.44
2024-01-27T02:03:53.744Z,99055.31
2024-01-27T02:06:22.550Z,99055.16
2024-01-27T02:08:49.855Z,99064.97
2024-01-27T02:11:17.031Z,99063.78
2024-01-27T02:13:44.631Z,99054.97
2024-01-27T02:16:11.730Z,99045.47
2024-01-27T02:18:38.909Z,99051.06
2024-01-27T02:21:06.138Z,99051.88
2024-01-27T02:23:34.534Z,99064.00
2024-01-27T02:26:03.046Z,99057.63
2024-01-27T02:28:33.236Z,99051.53
2024-01-27T02:31:03.739Z,99054.22
2024-01-27T02:33:31.181Z,99052.63
2024-01-27T02:35:58.362Z,99051.97
2024-01-27T02:38:25.374Z,99053.03
2024-01-27T02:40:52.495Z,99053.19
2024-01-27T02:43:20.885Z,99054.91
2024-01-27T02:45:47.843Z,99044.91
2024-01-27T02:48:15.018Z,99042.53
2024-01-27T02:50:42.124Z,99035.38
2024-01-27T02:53:09.121Z,99037.22
2024-01-27T02:55:36.158Z,99033.38
2024-01-27T02:58:03.270Z,99037.50
2024-01-27T03:00:31.757Z,99047.63
2024-01-27T03:02:59.758Z,99052.69
2024-01-27T03:05:27.029Z,99049.22
2024-01-27T03:07:54.074Z,99043.38
2024-01-27T03:10:21.119Z,99041.75
2024-01-27T03:12:48.127Z,99049.34
2024-01-27T03:15:15.386Z,99054.00
2024-01-27T03:17:43.851Z,99061.34
2024-01-27T03:20:11.977Z,99043.47
2024-01-27T03:22:39.004Z,99047.72
2024-01-27T03:25:07.080Z,99044.00
2024-01-27T03:27:34.197Z,99042.09
2024-01-27T03:30:03.099Z,99036.09
2024-01-27T03:32:32.875Z,99034.38
2024-01-27T03:35:01.440Z,99031.03
2024-01-27T03:37:28.535Z,99023.44
2024-01-27T03:39:55.549Z,99018.38
2024-01-27T03:42:22.814Z,99011.84
2024-01-27T03:44:49.902Z,99002.81
2024-01-27T03:47:17.063Z,98996.00
2024-01-27T03:49:44.403Z,98983.50
2024-01-27T03:52:12.956Z,98967.50
2024-01-27T03:54:40.334Z,98965.75
2024-01-27T03:57:07.567Z,98969.81
2024-01-27T03:59:34.651Z,98958.06
2024-01-27T04:02:01.666Z,98959.00
2024-01-27T04:04:28.865Z,98969.41
2024-01-27T04:06:55.971Z,98971.59
2024-01-27T04:09:25.144Z,98976.66
2024-01-27T04:11:52.568Z,99002.63
2024-01-27T04:14:19.584Z,98986.50
2024-01-27T04:16:46.963Z,98988.91
2024-01-27T04:19:14.105Z,98988.72
2024-01-27T04:21:41.220Z,98991.94
2024-01-27T04:24:08.404Z,98995.91
2024-01-27T04:26:36.797Z,98997.38
2024-01-27T04:29:03.806Z,98988.84
2024-01-27T04:31:32.487Z,98992.16
2024-01-27T04:33:59.739Z,98986.81
2024-01-27T04:36:28.032Z,98969.34
2024-01-27T04:38:55.114Z,98977.75
2024-01-27T04:41:22.314Z,98977.75
2024-01-27T04:43:51.271Z,98977.63
2024-01-27T04:46:18.325Z,98965.38
2024-01-27T04:48:45.543Z,98976.19
2024-01-27T04:51:12.789Z,98965.53
2024-01-27T04:53:39.730Z,98961.53
2024-01-27T04:56:10.938Z,98959.97
2024-01-27T04:58:38.276Z,98966.25
2024-01-27T05:01:07.781Z,98959.56
2024-01-27T05:03:35.048Z,98961.31
2024-01-27T05:06:02.275Z,98962.69
2024-01-27T05:08:29.341Z,98964.69
2024-01-27T05:10:59.200Z,98963.09
2024-01-27T05:13:26.478Z,98959.50
2024-01-27T05:15:53.540Z,98961.47
2024-01-27T05:18:22.076Z,98962.09
2024-01-27T05:20:49.191Z,98952.38
2024-01-27T05:23:16.161Z,98959.22
2024-01-27T05:25:43.143Z,98952.44
2024-01-27T05:28:10.149Z,98944.13
2024-01-27T05:30:37.187Z,98940.09
2024-01-27T05:33:05.244Z,98937.69
2024-01-27T05:35:33.702Z,98946.09
2024-01-27T05:38:00.677Z,98932.34
2024-01-27T05:40:27.823Z,98927.91
2024-01-27T05:42:55.904Z,98921.94
2024-01-27T05:45:24.074Z,98922.06
2024-01-27T05:47:51.897Z,98919.41
2024-01-27T05:50:19.079Z,98926.25
2024-01-27T05:52:47.423Z,98938.50
2024-01-27T05:55:14.470Z,98934.22
2024-01-27T05:57:41.801Z,98936.63
2024-01-27T06:00:11.001Z,98947.38
2024-01-27T06:02:38.102Z,98941.84
2024-01-27T06:05:05.830Z,98946.75
2024-01-27T06:07:32.945Z,98949.94
2024-01-27T06:10:01.367Z,98949.34
2024-01-27T06:12:28.464Z,98940.31
2024-01-27T06:14:55.550Z,98940.94
2024-01-27T06:17:22.751Z,98941.75
2024-01-27T06:19:49.939Z,98936.53
2024-01-27T06:22:17.031Z,98927.63
2024-01-27T06:24:45.031Z,98919.75
2024-01-27T06:27:13.517Z,98914.22
2024-01-27T06:29:41.726Z,98915.53
2024-01-27T06:32:11.541Z,98914.44
2024-01-27T06:34:40.674Z,98920.81
2024-01-27T06:37:07.689Z,98909.56
2024-01-27T06:39:34.677Z,98906.59
2024-01-27T06:42:01.726Z,98908.03
2024-01-27T06:44:30.490Z,98909.50
2024-01-27T06:46:57.474Z,98910.28
2024-01-27T06:49:24.654Z,98917.59
2024-01-27T06:51:51.685Z,98926.50
2024-01-27T06:54:18.799Z,98936.63
2024-01-27T06:56:45.877Z,98938.88
2024-01-27T06:59:13.502Z,98928.78
2024-01-27T07:01:46.907Z,98921.25
2024-01-27T07:04:14.521Z,98924.28
2024-01-27T07:06:41.917Z,98914.63
2024-01-27T07:09:10.457Z,98920.03
2024-01-27T07:11:37.776Z,98907.06
2024-01-27T07:14:04.919Z,98918.34
2024-01-27T07:16:33.548Z,98919.16
2024-01-27T07:19:02.147Z,98916.63
2024-01-27T07:21:30.372Z,98922.03
2024-01-27T07:23:57.390Z,98922.72
2024-01-27T07:26:24.479Z,98929.28
2024-01-27T07:28:51.459Z,98916.78
2024-01-27T07:31:18.698Z,98915.84
2024-01-27T07:33:45.924Z,98918.03
2024-01-27T07:36:14.494Z,98919.66
2024-01-27T07:38:41.522Z,98940.25
2024-01-27T07:41:08.524Z,98940.25
2024-01-27T07:43:35.510Z,98942.94
2024-01-27T07:46:02.673Z,98931.03
2024-01-27T07:48:29.899Z,98933.91
2024-01-27T07:50:58.086Z,98935.28
2024-01-27T07:53:26.562Z,98932.41
2024-01-27T07:55:55.160Z,98931.75
2024-01-27T07:58:22.169Z,98935.91
2024-01-27T08:00:51.881Z,98938.75
2024-01-27T08:03:19.122Z,98933.81
2024-01-27T08:05:46.217Z,98941.06
2024-01-27T08:08:13.354Z,98938.53
2024-01-27T08:10:42.306Z,98944.84
2024-01-27T08:13:09.344Z,98941.41
2024-01-27T08:15:36.392Z,98941.41
2024-01-27T08:18:03.650Z,98947.41
2024-01-27T08:20:30.793Z,98944.53
2024-01-27T08:22:58.007Z,98942.13
2024-01-27T08:25:24.990Z,98944.31
2024-01-27T08:27:53.385Z,98947.03
2024-01-27T08:30:20.629Z,98954.78
2024-01-27T08:32:47.667Z,98947.94
2024-01-27T08:35:14.963Z,98951.16
2024-01-27T08:37:42.029Z,98951.59
2024-01-27T08:40:09.847Z,98953.03
2024-01-27T08:42:36.843Z,98955.56
2024-01-27T08:45:05.998Z,98960.03
2024-01-27T08:47:33.102Z,98970.69
2024-01-27T08:50:00.610Z,98968.50
2024-01-27T08:52:27.685Z,98974.56
2024-01-27T08:54:54.644Z,98972.22
2024-01-27T08:57:21.638Z,98974.47
2024-01-27T08:59:48.785Z,98969.09
2024-01-27T09:02:17.130Z,98978.94
2024-01-27T09:04:44.275Z,98981.19
2024-01-27T09:07:11.347Z,98983.28
2024-01-27T09:09:40.092Z,98986.28
2024-01-27T09:12:07.869Z,98981.88
2024-01-27T09:14:34.958Z,98977.09
2024-01-27T09:17:02.056Z,98969.47
2024-01-27T09:19:30.477Z,98972.00
2024-01-27T09:21:57.492Z,98965.50
2024-01-27T09:24:24.775Z,98960.88
2024-01-27T09:26:52.568Z,98965.28
2024-01-27T09:29:20.764Z,98963.41
2024-01-27T09:31:47.791Z,98962.13
2024-01-27T09:34:14.941Z,98969.38
2024-01-27T09:36:43.390Z,98962.44
2024-01-27T09:39:10.565Z,98965.91
2024-01-27T09:41:38.756Z,98962.44
2024-01-27T09:44:06.304Z,98960.50
2024-01-27T09:46:33.793Z,98957.97
2024-01-27T09:49:02.989Z,98964.31
2024-01-27T09:51:30.804Z,98966.69
2024-01-27T09:53:59.288Z,98967.66
2024-01-27T09:56:26.526Z,98963.53
2024-01-27T09:58:56.596Z,98976.06
2024-01-27T10:01:26.748Z,98961.44
2024-01-27T10:03:55.111Z,98965.69
2024-01-27T10:06:23.169Z,98967.28
2024-01-27T10:08:54.709Z,98966.22
2024-01-27T10:11:25.065Z,98963.53
2024-01-27T10:13:59.315Z,98968.28
2024-01-27T10:16:27.379Z,98969.09
2024-01-27T10:19:03.982Z,98968.78
2024-01-27T10:21:31.751Z,98973.56
2024-01-27T10:23:59.152Z,98968.19
2024-01-27T10:26:27.549Z,98968.38
2024-01-27T10:28:55.631Z,98969.03
2024-01-27T10:31:27.881Z,98963.50
2024-01-27T10:33:55.998Z,98965.69
2024-01-27T10:36:23.468Z,98971.44
2024-01-27T10:38:50.694Z,98971.13
2024-01-27T10:41:22.810Z,98975.25
2024-01-27T10:43:52.631Z,98979.72
2024-01-27T10:46:21.744Z,98978.47
2024-01-27T10:48:52.816Z,98971.50
2024-01-27T10:51:24.121Z,98977.88
2024-01-27T10:53:54.839Z,98978.84
2024-01-27T10:56:24.444Z,98984.91
2024-01-27T10:58:53.883Z,98982.38
2024-01-27T11:01:24.127Z,98986.84
2024-01-27T11:03:55.483Z,98980.19
2024-01-27T11:06:23.670Z,98986.25
2024-01-27T11:08:51.714Z,98982.13
2024-01-27T11:11:19.676Z,98990.56
2024-01-27T11:13:49.469Z,98987.41
2024-01-27T11:16:19.523Z,98989.47
2024-01-27T11:18:47.332Z,98982.81
2024-01-27T11:21:17.201Z,98988.19
2024-01-27T11:23:46.101Z,98994.41
2024-01-27T11:26:20.488Z,98994.56
2024-01-27T11:28:47.496Z,98995.69
2024-01-27T11:31:22.919Z,98997.56
2024-01-27T11:33:54.338Z,98998.88
2024-01-27T11:36:23.772Z,98999.97
2024-01-27T11:38:52.865Z,99000.94
2024-01-27T11:41:27.479Z,99001.38
2024-01-27T11:43:55.093Z,99003.00
2024-01-27T11:46:28.190Z,99001.06
2024-01-27T11:48:55.905Z,99003.47
2024-01-27T11:51:24.890Z,99003.78
2024-01-27T11:53:52.332Z,99006.94
2024-01-27T11:56:19.386Z,99012.69
2024-01-27T11:58:50.134Z,99009.97
2024-01-27T12:01:18.084Z,99016.19
2024-01-27T12:03:47.238Z,99020.63
2024-01-27T12:06:15.731Z,99013.31
2024-01-27T12:08:49.438Z,99016.97
2024-01-27T12:11:20.788Z,99021.56
2024-01-27T12:13:51.067Z,99020.94
2024-01-27T12:16:19.113Z,99020.25
2024-01-27T12:18:47.644Z,99031.22
2024-01-27T12:21:14.729Z,99033.13
2024-01-27T12:23:54.960Z,99057.16
2024-01-27T12:26:23.522Z,99059.53
2024-01-27T12:28:50.513Z,99069.41
2024-01-27T12:31:21.654Z,99067.50
2024-01-27T12:33:55.420Z,99084.81
2024-01-27T12:36:24.040Z,99082.91
2024-01-27T12:38:56.355Z,99075.28
2024-01-27T12:41:23.553Z,99081.94
2024-01-27T12:43:50.668Z,99074.94
2024-01-27T12:46:17.910Z,99071.28
2024-01-27T12:48:46.736Z,99072.84
2024-01-27T12:51:15.404Z,99075.25
2024-01-27T12:53:45.197Z,99069.66
2024-01-27T12:56:13.182Z,99064.38
2024-01-27T12:58:41.039Z,99062.13
2024-01-27T13:01:11.085Z,99061.47
2024-01-27T13:03:40.254Z,99072.59
2024-01-27T13:06:09.510Z,99071.44
2024-01-27T13:08:38.874Z,99073.44
2024-01-27T13:11:05.902Z,99076.03
2024-01-27T13:13:32.911Z,99078.66
2024-01-27T13:15:59.986Z,99082.44
2024-01-27T13:18:27.131Z,99090.56
2024-01-27T13:20:54.823Z,99095.47
2024-01-27T13:23:21.965Z,99083.69
2024-01-27T13:26:02.507Z,99096.28
2024-01-27T13:28:37.468Z,99095.47
2024-01-27T13:31:05.935Z,99104.13
2024-01-27T13:33:34.169Z,99108.41
2024-01-27T13:36:01.506Z,99112.28
2024-01-27T13:38:28.868Z,99112.59
2024-01-27T13:40:57.319Z,99104.69
2024-01-27T13:43:24.278Z,99105.00
2024-01-27T13:45:52.579Z,99106.75
2024-01-27T13:48:20.193Z,99109.66
2024-01-27T13:50:47.412Z,99109.84
2024-01-27T13:53:14.386Z,99130.41
2024-01-27T13:55:43.604Z,99122.94
2024-01-27T13:58:12.415Z,99129.94
2024-01-27T14:00:39.851Z,99135.38
2024-01-27T14:03:07.104Z,99124.72
2024-01-27T14:05:34.195Z,99129.53
2024-01-27T14:08:01.252Z,99130.81
2024-01-27T14:10:28.470Z,99122.56
2024-01-27T14:12:55.789Z,99132.13
2024-01-27T14:15:24.598Z,99129.72
2024-01-27T14:17:54.578Z,99124.16
2024-01-27T14:20:24.051Z,99125.00
2024-01-27T14:22:51.096Z,99120.22
2024-01-27T14:25:18.181Z,99118.81
2024-01-27T14:27:46.529Z,99131.25
2024-01-27T14:30:15.828Z,99135.72
2024-01-27T14:32:46.249Z,99138.59
2024-01-27T14:35:13.623Z,99145.78
2024-01-27T14:37:41.223Z,99148.81
2024-01-27T14:40:09.654Z,99159.34
2024-01-27T14:42:37.623Z,99163.81
2024-01-27T14:45:05.525Z,99156.47
2024-01-27T14:47:32.574Z,99146.44
2024-01-27T14:50:01.173Z,99151.69
2024-01-27T14:52:28.252Z,99155.22
2024-01-27T14:54:55.389Z,99155.53
2024-01-27T14:57:22.369Z,99152.84
2024-01-27T14:59:49.461Z,99154.13
2024-01-27T15:02:18.670Z,99159.38
2024-01-27T15:04:47.122Z,99164.63
2024-01-27T15:07:17.304Z,99163.81
2024-01-27T15:09:44.513Z,99162.88
2024-01-27T15:12:11.865Z,99169.56
2024-01-27T15:14:38.908Z,99164.31
2024-01-27T15:17:07.913Z,99170.38
2024-01-27T15:19:40.614Z,99178.03
2024-01-27T15:22:10.129Z,99181.06
2024-01-27T15:24:40.710Z,99187.72
2024-01-27T15:27:11.843Z,99192.81
2024-01-27T15:29:39.521Z,99192.81
2024-01-27T15:32:08.330Z,99200.78
2024-01-27T15:34:35.430Z,99207.81
2024-01-27T15:37:02.554Z,99209.56
2024-01-27T15:39:29.584Z,99209.72
2024-01-27T15:41:59.440Z,99214.81
2024-01-27T15:44:26.464Z,99220.06
2024-01-27T15:46:53.493Z,99226.91
2024-01-27T15:49:22.205Z,99218.63
2024-01-27T15:51:49.280Z,99227.88
2024-01-27T15:54:19.244Z,99228.50
2024-01-27T15:56:49.259Z,99232.81
2024-01-27T15:59:17.721Z,99238.72
2024-01-27T16:01:44.706Z,99237.09
2024-01-27T16:04:12.611Z,99242.19
2024-01-27T16:06:40.647Z,99244.75
2024-01-27T16:09:07.804Z,99237.09
2024-01-27T16:11:34.869Z,99247.63
2024-01-27T16:14:01.845Z,99254.94
2024-01-27T16:16:30.890Z,99264.66
2024-01-27T16:18:57.967Z,99256.84
2024-01-27T16:21:26.205Z,99261.78
2024-01-27T16:23:53.709Z,99255.41
2024-01-27T16:26:23.639Z,99256.38
2024-01-27T16:28:50.770Z,99264.78
2024-01-27T16:31:17.747Z,99260.50
2024-01-27T16:33:46.495Z,99259.84
2024-01-27T16:36:13.654Z,99256.03
2024-01-27T16:38:42.854Z,99259.03
2024-01-27T16:41:11.206Z,99260.97
2024-01-27T16:43:38.187Z,99266.38
2024-01-27T16:46:07.104Z,99274.16
2024-01-27T16:48:34.245Z,99281.00
2024-01-27T16:51:04.779Z,99270.19
2024-01-27T16:53:31.928Z,99286.41
2024-01-27T16:55:58.984Z,99282.56
2024-01-27T16:58:25.931Z,99282.25
2024-01-27T17:00:54.008Z,99287.63
2024-01-27T17:03:21.155Z,99280.28
2024-01-27T17:05:48.714Z,99284.41
2024-01-27T17:08:17.089Z,99288.81
2024-01-27T17:10:44.034Z,99285.97
2024-01-27T17:13:11.036Z,99293.25
2024-01-27T17:15:38.928Z,99287.16
2024-01-27T17:18:06.671Z,99292.84
2024-01-27T17:20:33.705Z,99297.75
2024-01-27T17:23:00.658Z,99311.75
2024-01-27T17:25:29.318Z,99316.66
2024-01-27T17:27:56.507Z,99314.41
2024-01-27T17:30:23.546Z,99313.75
2024-01-27T17:32:50.845Z,99319.94
2024-01-27T17:35:18.430Z,99329.72
2024-01-27T17:37:45.477Z,99324.78
2024-01-27T17:40:13.511Z,99330.84
2024-01-27T17:42:41.973Z,99330.22
2024-01-27T17:45:09.998Z,99337.75
2024-01-27T17:47:38.131Z,99336.75
2024-01-27T17:50:07.100Z,99338.97
2024-01-27T17:52:39.881Z,99351.28
2024-01-27T17:55:11.494Z,99350.28
2024-01-27T17:57:39.184Z,99355.97
2024-01-27T18:00:11.323Z,99355.31
2024-01-27T18:02:38.599Z,99366.44
2024-01-27T18:05:06.361Z,99363.50
2024-01-27T18:07:34.643Z,99370.13
2024-01-27T18:10:01.825Z,99373.91
2024-01-27T18:12:28.888Z,99374.47
2024-01-27T18:14:56.014Z,99386.97
2024-01-27T18:17:24.885Z,99390.72
2024-01-27T18:19:52.017Z,99388.91
2024-01-27T18:22:18.987Z,99381.19
2024-01-27T18:24:46.114Z,99393.00
2024-01-27T18:27:15.312Z,99394.25
2024-01-27T18:29:42.431Z,99393.69
2024-01-27T18:32:09.479Z,99394.50
2024-01-27T18:34:38.592Z,99394.50
2024-01-27T18:37:05.716Z,99398.09
2024-01-27T18:39:33.049Z,99404.41
2024-01-27T18:42:00.138Z,99413.94
2024-01-27T18:44:27.339Z,99407.38
2024-01-27T18:46:54.351Z,99412.75
2024-01-27T18:49:21.493Z,99420.09
2024-01-27T18:51:50.629Z,99419.59
2024-01-27T18:54:20.133Z,99429.63
2024-01-27T18:56:47.399Z,99422.00
2024-01-27T18:59:14.369Z,99431.06
2024-01-27T19:01:41.395Z,99431.88
2024-01-27T19:04:08.727Z,99419.81
2024-01-27T19:06:37.452Z,99426.63
2024-01-27T19:09:05.985Z,99425.84
2024-01-27T19:11:32.955Z,99439.84
2024-01-27T19:14:00.294Z,99437.31
2024-01-27T19:16:27.285Z,99448.28
2024-01-27T19:18:54.507Z,99447.75
2024-01-27T19:21:21.728Z,99451.22
2024-01-27T19:23:48.965Z,99453.75
2024-01-27T19:26:17.448Z,99452.81
2024-01-27T19:28:44.452Z,99458.03
2024-01-27T19:31:11.466Z,99459.13
2024-01-27T19:33:38.825Z,99464.19
2024-01-27T19:36:06.716Z,99460.19
2024-01-27T19:38:34.109Z,99467.94
2024-01-27T19:41:11.435Z,99466.63
2024-01-27T19:43:47.447Z,99462.22
2024-01-27T19:46:14.914Z,99462.22
2024-01-27T19:48:42.648Z,99460.09
2024-01-27T19:51:10.044Z,99470.25
2024-01-27T19:53:37.215Z,99467.72
2024-01-27T19:56:09.496Z,99476.25
2024-01-27T19:58:37.039Z,99477.03
2024-01-27T20:01:05.825Z,99479.44
2024-01-27T20:03:33.104Z,99477.84
2024-01-27T20:06:00.450Z,99482.94
2024-01-27T20:08:27.564Z,99482.13
2024-01-27T20:10:54.577Z,99483.88
2024-01-27T20:13:21.642Z,99483.19
2024-01-27T20:15:48.912Z,99474.13
2024-01-27T20:18:17.561Z,99479.47
2024-01-27T20:20:44.628Z,99478.66
2024-01-27T20:23:12.421Z,99474.81
2024-01-27T20:25:39.427Z,99479.38
2024-01-27T20:28:06.981Z,99481.09
2024-01-27T20:30:34.886Z,99485.38
2024-01-27T20:33:02.392Z,99494.84
2024-01-27T20:35:31.081Z,99491.50
2024-01-27T20:37:58.583Z,99492.44
2024-01-27T20:40:26.012Z,99489.09
2024-01-27T20:42:53.080Z,99488.72
2024-01-27T20:45:20.167Z,99492.72
2024-01-27T20:47:49.101Z,99496.34
2024-01-27T20:50:16.873Z,99502.72
2024-01-27T20:52:45.357Z,99515.16
2024-01-27T20:55:12.402Z,99505.00
2024-01-27T20:57:39.418Z,99505.28
2024-01-27T21:00:08.566Z,99514.59
2024-01-27T21:02:35.599Z,99511.25
2024-01-27T21:05:02.592Z,99515.53
2024-01-27T21:07:29.672Z,99517.94
2024-01-27T21:09:58.145Z,99519.53
2024-01-27T21:12:25.252Z,99524.59
2024-01-27T21:14:52.281Z,99532.09
2024-01-27T21:17:19.386Z,99534.22
2024-01-27T21:19:49.759Z,99541.56
2024-01-27T21:22:17.757Z,99546.38
2024-01-27T21:24:45.122Z,99546.09
2024-01-27T21:27:13.555Z,99545.94
2024-01-27T21:29:40.609Z,99550.25
2024-01-27T21:32:08.065Z,99554.13
2024-01-27T21:34:35.308Z,99552.38
2024-01-27T21:37:02.408Z,99555.56
2024-01-27T21:39:29.517Z,99555.56
2024-01-27T21:41:56.502Z,99570.78
2024-01-27T21:44:24.898Z,99559.72
2024-01-27T21:46:51.841Z,99566.13
2024-01-27T21:49:19.327Z,99581.47
2024-01-27T21:51:48.644Z,99575.31
2024-01-27T21:54:15.805Z,99574.13
2024-01-27T21:56:42.836Z,99583.56
2024-01-27T21:59:09.985Z,99588.63
2024-01-27T22:01:38.776Z,99589.59
2024-01-27T22:04:06.067Z,99586.50
2024-01-27T22:06:33.188Z,99595.03
2024-01-27T22:09:01.012Z,99590.78
2024-01-27T22:11:28.276Z,99591.56
2024-01-27T22:13:55.502Z,99589.97
2024-01-27T22:16:23.620Z,99602.50
2024-01-27T22:18:52.158Z,99594.78
2024-01-27T22:21:19.480Z,99595.59
2024-01-27T22:23:46.500Z,99598.78
2024-01-27T22:26:13.524Z,99614.81
2024-01-27T22:28:40.469Z,99609.47
2024-01-27T22:31:07.921Z,99607.59
2024-01-27T22:33:35.152Z,99618.53
2024-01-27T22:36:04.517Z,99616.53
2024-01-27T22:38:31.497Z,99624.69
2024-01-27T22:40:58.713Z,99613.22
2024-01-27T22:43:25.664Z,99619.09
2024-01-27T22:45:52.629Z,99618.41
2024-01-27T22:48:20.139Z,99617.59
2024-01-27T22:50:47.421Z,99622.28
2024-01-27T22:53:16.736Z,99619.88
2024-01-27T22:55:43.698Z,99622.97
2024-01-27T22:58:10.697Z,99614.16
2024-01-27T23:00:40.476Z,99624.69
2024-01-27T23:03:09.339Z,99618.56
2024-01-27T23:05:36.792Z,99615.25
2024-01-27T23:08:04.327Z,99617.66
2024-01-27T23:10:32.976Z,99620.19
2024-01-27T23:13:01.549Z,99618.56
2024-01-27T23:15:28.897Z,99625.91
2024-01-27T23:17:56.169Z,99624.31
2024-01-27T23:20:24.464Z,99632.19
2024-01-27T23:22:51.444Z,99632.94
2024-01-27T23:25:18.642Z,99628.94
2024-01-27T23:27:47.145Z,99631.34
2024-01-27T23:30:14.345Z,99631.50
2024-01-27T23:32:41.465Z,99640.41
2024-01-27T23:35:09.201Z,99637.22
2024-01-27T23:37:36.476Z,99639.34
2024-01-27T23:40:04.690Z,99651.06
2024-01-27T23:42:31.824Z,99638.63
2024-01-27T23:45:01.466Z,99646.38
2024-01-27T23:47:28.781Z,99647.19
2024-01-27T23:49:55.901Z,99646.63
2024-01-27T23:52:26.136Z,99651.84
2024-01-27T23:54:53.706Z,99650.09
2024-01-27T23:57:21.000Z,99652.13
2024-01-27T23:59:48.471Z,99658.41
